createdAt,value
2024-05-09T00:01:00.066Z,12.98
2024-05-09T00:03:01.974Z,16.20
2024-05-09T00:05:03.845Z,8.73
2024-05-09T00:07:05.748Z,11.18
2024-05-09T00:09:07.566Z,10.60
2024-05-09T00:11:09.339Z,18.48
2024-05-09T00:13:11.480Z,13.75
2024-05-09T00:15:13.340Z,13.73
2024-05-09T00:17:15.174Z,13.10
2024-05-09T00:19:17.138Z,14.55
2024-05-09T00:21:18.964Z,11.40
2024-05-09T00:23:20.724Z,10.10
2024-05-09T00:25:22.436Z,10.85
2024-05-09T00:27:24.331Z,10.93
2024-05-09T00:29:26.307Z,14.50
2024-05-09T00:31:28.103Z,10.07
2024-05-09T00:33:30.143Z,10.05
2024-05-09T00:35:32.242Z,12.07
2024-05-09T00:37:34.060Z,12.95
2024-05-09T00:39:35.986Z,17.02
2024-05-09T00:41:37.756Z,11.98
2024-05-09T00:43:39.949Z,10.48
2024-05-09T00:45:42.366Z,11.65
2024-05-09T00:47:46.149Z,10.75
2024-05-09T00:49:48.117Z,14.45
2024-05-09T00:51:51.248Z,18.52
2024-05-09T00:53:53.267Z,12.38
2024-05-09T00:55:57.446Z,15.60
2024-05-09T00:57:59.308Z,13.27
2024-05-09T01:00:01.456Z,11.80
2024-05-09T01:02:03.451Z,12.75
2024-05-09T01:04:05.545Z,11.35
2024-05-09T01:06:07.351Z,16.50
2024-05-09T01:08:10.480Z,22.10
2024-05-09T01:10:17.417Z,19.58
2024-05-09T01:12:25.632Z,14.13
2024-05-09T01:14:27.451Z,15.32
2024-05-09T01:16:29.510Z,10.70
2024-05-09T01:18:31.367Z,12.40
2024-05-09T01:20:40.963Z,13.68
2024-05-09T01:22:45.633Z,10.90
2024-05-09T01:24:47.328Z,13.88
2024-05-09T01:26:49.105Z,11.32
2024-05-09T01:28:51.082Z,12.35
2024-05-09T01:30:52.813Z,12.43
2024-05-09T01:32:54.728Z,13.30
2024-05-09T01:34:56.655Z,12.35
2024-05-09T01:36:58.394Z,12.70
2024-05-09T01:39:00.128Z,13.73
2024-05-09T01:41:01.996Z,16.90
2024-05-09T01:43:03.913Z,16.88
2024-05-09T01:45:07.163Z,16.05
2024-05-09T01:47:09.562Z,12.88
2024-05-09T01:49:11.410Z,12.70
2024-05-09T01:51:13.328Z,14.43
2024-05-09T01:53:15.437Z,13.52
2024-05-09T01:55:17.295Z,10.10
2024-05-09T01:57:19.088Z,12.48
2024-05-09T01:59:21.100Z,12.27
2024-05-09T02:01:22.951Z,9.82
2024-05-09T02:03:24.914Z,9.40
2024-05-09T02:05:26.930Z,8.63
2024-05-09T02:07:28.700Z,12.07
2024-05-09T02:09:30.404Z,11.48
2024-05-09T02:11:32.755Z,13.95
2024-05-09T02:13:34.632Z,12.10
2024-05-09T02:15:36.600Z,10.00
2024-05-09T02:17:38.552Z,11.55
2024-05-09T02:19:40.499Z,9.30
2024-05-09T02:21:42.238Z,10.85
2024-05-09T02:23:44.015Z,11.48
2024-05-09T02:25:45.835Z,11.48
2024-05-09T02:27:47.564Z,9.90
2024-05-09T02:29:49.375Z,11.65
2024-05-09T02:31:51.284Z,11.57
2024-05-09T02:33:53.250Z,12.98
2024-05-09T02:35:55.101Z,9.52
2024-05-09T02:37:57.895Z,12.77
2024-05-09T02:39:59.688Z,12.00
2024-05-09T02:42:01.444Z,10.55
2024-05-09T02:44:03.241Z,10.05
2024-05-09T02:46:06.695Z,9.88
2024-05-09T02:48:13.296Z,11.20
2024-05-09T02:50:23.023Z,12.38
2024-05-09T02:52:28.492Z,11.13
2024-05-09T02:54:30.309Z,10.35
2024-05-09T02:56:32.045Z,12.55
2024-05-09T02:58:33.794Z,9.75
2024-05-09T03:00:39.797Z,10.80
2024-05-09T03:02:44.075Z,14.55
2024-05-09T03:04:45.997Z,9.93
2024-05-09T03:06:47.780Z,10.18
2024-05-09T03:08:49.491Z,11.52
2024-05-09T03:10:51.259Z,12.02
2024-05-09T03:12:53.072Z,14.05
2024-05-09T03:14:54.839Z,12.30
2024-05-09T03:16:56.608Z,13.27
2024-05-09T03:18:58.618Z,10.70
2024-05-09T03:21:00.431Z,11.27
2024-05-09T03:23:02.400Z,11.23
2024-05-09T03:25:04.546Z,10.75
2024-05-09T03:27:06.496Z,11.35
2024-05-09T03:29:08.274Z,10.07
2024-05-09T03:31:10.539Z,15.95
2024-05-09T03:33:16.189Z,43.03
2024-05-09T03:35:18.095Z,21.40
2024-05-09T03:37:19.822Z,14.07
2024-05-09T03:39:21.566Z,8.90
2024-05-09T03:41:23.359Z,12.18
2024-05-09T03:43:25.191Z,12.18
2024-05-09T03:45:26.914Z,10.35
2024-05-09T03:47:28.811Z,11.70
2024-05-09T03:49:30.937Z,10.18
2024-05-09T03:51:32.938Z,10.77
2024-05-09T03:53:34.780Z,12.43
2024-05-09T03:55:36.700Z,12.63
2024-05-09T03:57:38.400Z,12.93
2024-05-09T03:59:40.171Z,13.10
2024-05-09T04:01:42.042Z,14.20
2024-05-09T04:03:44.050Z,16.08
2024-05-09T04:05:46.195Z,11.52
2024-05-09T04:07:48.098Z,12.30
2024-05-09T04:09:49.819Z,10.63
2024-05-09T04:11:51.696Z,12.23
2024-05-09T04:13:53.492Z,15.48
2024-05-09T04:15:55.274Z,14.68
2024-05-09T04:17:57.264Z,12.73
2024-05-09T04:19:59.392Z,15.13
2024-05-09T04:22:01.126Z,11.70
2024-05-09T04:24:02.848Z,10.57
2024-05-09T04:26:04.998Z,10.65
2024-05-09T04:28:06.923Z,10.25
2024-05-09T04:30:15.315Z,10.90
2024-05-09T04:32:23.329Z,10.18
2024-05-09T04:34:25.320Z,11.18
2024-05-09T04:36:27.059Z,9.38
2024-05-09T04:38:29.028Z,12.05
2024-05-09T04:40:34.444Z,10.88
2024-05-09T04:42:40.865Z,10.68
2024-05-09T04:44:42.591Z,10.57
2024-05-09T04:46:44.353Z,13.50
2024-05-09T04:48:46.224Z,12.15
2024-05-09T04:50:48.102Z,15.50
2024-05-09T04:52:49.909Z,9.77
2024-05-09T04:54:52.675Z,10.65
2024-05-09T04:56:55.220Z,13.30
2024-05-09T04:58:56.973Z,10.50
2024-05-09T05:00:58.773Z,12.75
2024-05-09T05:03:00.670Z,9.50
2024-05-09T05:05:02.797Z,10.68
2024-05-09T05:07:04.846Z,9.68
2024-05-09T05:09:06.653Z,13.43
2024-05-09T05:11:08.470Z,15.95
2024-05-09T05:13:11.776Z,13.80
2024-05-09T05:15:13.757Z,12.27
2024-05-09T05:17:15.527Z,10.68
2024-05-09T05:19:17.836Z,9.35
2024-05-09T05:21:19.868Z,10.80
2024-05-09T05:23:23.255Z,7.95
2024-05-09T05:25:25.152Z,8.98
2024-05-09T05:27:26.845Z,13.95
2024-05-09T05:29:28.698Z,9.52
2024-05-09T05:31:30.506Z,9.32
2024-05-09T05:33:32.716Z,7.78
2024-05-09T05:35:34.948Z,9.35
2024-05-09T05:37:36.805Z,8.15
2024-05-09T05:39:38.696Z,7.60
2024-05-09T05:41:40.527Z,7.22
2024-05-09T05:43:42.296Z,8.55
2024-05-09T05:45:44.838Z,7.35
2024-05-09T05:47:46.811Z,5.90
2024-05-09T05:49:48.624Z,8.15
2024-05-09T05:51:50.465Z,6.25
2024-05-09T05:53:52.186Z,10.18
2024-05-09T05:55:53.917Z,11.73
2024-05-09T05:57:55.922Z,6.88
2024-05-09T05:59:57.654Z,9.45
2024-05-09T06:01:59.387Z,6.88
2024-05-09T06:04:01.445Z,6.22
2024-05-09T06:06:03.622Z,7.38
2024-05-09T06:08:05.977Z,9.05
2024-05-09T06:10:16.957Z,6.70
2024-05-09T06:12:23.086Z,10.75
2024-05-09T06:14:24.968Z,9.02
2024-05-09T06:16:26.888Z,8.27
2024-05-09T06:18:28.733Z,7.97
2024-05-09T06:20:35.958Z,10.13
2024-05-09T06:22:39.980Z,12.70
2024-05-09T06:24:41.710Z,9.82
2024-05-09T06:26:44.198Z,9.50
2024-05-09T06:28:46.201Z,9.20
2024-05-09T06:30:47.996Z,9.95
2024-05-09T06:32:49.844Z,7.40
2024-05-09T06:34:51.730Z,10.02
2024-05-09T06:36:53.457Z,14.10
2024-05-09T06:38:55.194Z,12.80
2024-05-09T06:40:57.187Z,10.40
2024-05-09T06:42:58.956Z,6.50
2024-05-09T06:45:00.711Z,11.55
2024-05-09T06:47:02.540Z,9.02
2024-05-09T06:49:04.644Z,13.48
2024-05-09T06:51:06.610Z,13.25
2024-05-09T06:53:08.756Z,11.25
2024-05-09T06:55:10.577Z,9.25
2024-05-09T06:57:12.323Z,9.45
2024-05-09T06:59:14.354Z,6.97
2024-05-09T07:01:16.162Z,6.78
2024-05-09T07:03:19.277Z,6.05
2024-05-09T07:07:23.375Z,6.38
2024-05-09T07:09:25.115Z,6.80
2024-05-09T07:11:27.051Z,8.50
2024-05-09T07:13:28.847Z,7.57
2024-05-09T07:15:30.989Z,5.32
2024-05-09T07:17:32.976Z,6.45
2024-05-09T07:19:34.924Z,5.65
2024-05-09T07:21:36.780Z,5.40
2024-05-09T07:23:38.712Z,8.73
2024-05-09T07:25:41.668Z,5.78
2024-05-09T07:27:43.481Z,7.22
2024-05-09T07:29:45.215Z,4.63
2024-05-09T07:31:47.016Z,4.80
2024-05-09T07:33:48.985Z,6.53
2024-05-09T07:35:51.014Z,4.82
2024-05-09T07:37:52.759Z,6.40
2024-05-09T07:39:54.456Z,5.93
2024-05-09T07:41:56.177Z,4.22
2024-05-09T07:43:58.074Z,10.05
2024-05-09T07:46:28.311Z,8.00
2024-05-09T07:53:33.145Z,5.88
2024-05-09T07:54:55.802Z,7.65
2024-05-09T07:56:57.839Z,4.72
2024-05-09T07:58:59.616Z,5.65
2024-05-09T08:01:01.446Z,11.70
2024-05-09T08:03:03.308Z,5.95
2024-05-09T08:05:05.435Z,5.00
2024-05-09T08:07:07.425Z,6.43
2024-05-09T08:09:13.879Z,4.38
2024-05-09T08:11:21.127Z,8.70
2024-05-09T08:13:23.279Z,6.13
2024-05-09T08:15:25.040Z,6.20
2024-05-09T08:17:26.910Z,4.10
2024-05-09T08:19:28.689Z,4.30
2024-05-09T08:21:30.488Z,4.68
2024-05-09T08:23:32.259Z,5.43
2024-05-09T08:25:33.976Z,4.13
2024-05-09T08:27:35.754Z,5.63
2024-05-09T08:29:37.513Z,4.90
2024-05-09T08:31:39.416Z,4.45
2024-05-09T08:33:46.538Z,4.95
2024-05-09T08:35:48.453Z,4.32
2024-05-09T08:37:50.202Z,5.55
2024-05-09T08:39:52.257Z,6.47
2024-05-09T08:41:54.015Z,5.53
2024-05-09T08:43:55.758Z,7.95
2024-05-09T08:45:59.337Z,7.88
2024-05-09T08:50:13.551Z,7.82
2024-05-09T08:54:19.956Z,7.60
2024-05-09T08:56:26.667Z,8.52
2024-05-09T08:58:30.522Z,9.05
2024-05-09T09:00:36.978Z,5.65
2024-05-09T09:02:40.044Z,6.88
2024-05-09T09:04:48.210Z,6.68
2024-05-09T09:06:53.167Z,6.32
2024-05-09T09:08:55.876Z,11.30
2024-05-09T09:11:00.950Z,3.58
2024-05-09T09:13:03.453Z,6.63
2024-05-09T09:15:05.538Z,8.85
2024-05-09T09:17:14.816Z,6.60
2024-05-09T09:19:16.783Z,8.15
2024-05-09T09:21:18.741Z,3.97
2024-05-09T09:23:20.531Z,4.53
2024-05-09T09:25:23.010Z,26.75
2024-05-09T09:27:24.748Z,5.63
2024-05-09T09:29:26.788Z,6.05
2024-05-09T09:31:29.775Z,4.50
2024-05-09T09:33:32.068Z,6.70
2024-05-09T09:35:34.893Z,8.83
2024-05-09T09:37:38.146Z,9.25
2024-05-09T09:39:40.267Z,5.93
2024-05-09T09:41:46.530Z,7.50
2024-05-09T09:43:48.829Z,6.78
2024-05-09T09:45:53.033Z,9.02
2024-05-09T09:47:56.935Z,6.25
2024-05-09T09:49:59.756Z,5.03
2024-05-09T09:52:02.161Z,8.20
2024-05-09T09:54:05.949Z,6.95
2024-05-09T09:56:10.193Z,6.88
2024-05-09T09:58:14.700Z,6.80
2024-05-09T10:00:23.992Z,5.18
2024-05-09T10:02:29.525Z,8.68
2024-05-09T10:04:31.775Z,6.07
2024-05-09T10:06:39.013Z,6.32
2024-05-09T10:08:41.691Z,5.20
2024-05-09T10:10:47.042Z,9.10
2024-05-09T10:12:57.595Z,7.07
2024-05-09T10:14:59.444Z,3.88
2024-05-09T10:17:05.235Z,9.32
2024-05-09T10:19:07.110Z,12.48
2024-05-09T10:21:19.398Z,6.82
2024-05-09T10:23:23.941Z,4.47
2024-05-09T10:25:25.706Z,6.40
2024-05-09T10:27:28.943Z,6.13
2024-05-09T10:29:30.698Z,4.38
2024-05-09T10:31:32.554Z,5.18
2024-05-09T10:33:53.054Z,5.45
2024-05-09T10:35:55.101Z,6.82
2024-05-09T10:37:57.621Z,6.97
2024-05-09T10:40:00.556Z,6.28
2024-05-09T10:42:03.608Z,6.03
2024-05-09T10:44:15.736Z,7.45
2024-05-09T10:46:17.839Z,6.85
2024-05-09T10:48:19.729Z,7.03
2024-05-09T10:50:28.162Z,6.95
2024-05-09T10:52:31.074Z,4.68
2024-05-09T10:54:36.913Z,8.65
2024-05-09T10:56:38.685Z,5.85
2024-05-09T10:58:40.814Z,6.53
2024-05-09T11:00:42.604Z,5.30
2024-05-09T11:02:44.526Z,6.45
2024-05-09T11:04:46.587Z,5.65
2024-05-09T11:06:48.646Z,6.93
2024-05-09T11:08:50.921Z,4.90
2024-05-09T11:10:53.869Z,6.53
2024-05-09T11:12:55.754Z,5.97
2024-05-09T11:14:57.490Z,6.85
2024-05-09T11:17:07.538Z,4.50
2024-05-09T11:19:13.464Z,9.85
2024-05-09T11:21:15.303Z,7.10
2024-05-09T11:23:17.687Z,7.10
2024-05-09T11:25:19.589Z,8.45
2024-05-09T11:27:21.883Z,4.40
2024-05-09T11:29:36.059Z,9.70
2024-05-09T11:31:47.829Z,8.60
2024-05-09T11:33:49.750Z,7.40
2024-05-09T11:35:51.605Z,9.65
2024-05-09T11:37:53.425Z,8.70
2024-05-09T11:39:55.245Z,7.68
2024-05-09T11:41:57.804Z,5.55
2024-05-09T11:43:59.503Z,5.75
2024-05-09T11:46:01.395Z,4.68
2024-05-09T11:48:04.140Z,6.95
2024-05-09T11:50:08.077Z,7.10
2024-05-09T11:52:11.995Z,8.57
2024-05-09T11:54:15.752Z,5.22
2024-05-09T11:56:17.615Z,7.55
2024-05-09T11:58:20.630Z,5.70
2024-05-09T12:00:29.714Z,5.85
2024-05-09T12:02:38.285Z,12.68
2024-05-09T12:04:40.238Z,7.30
2024-05-09T12:06:42.225Z,7.80
2024-05-09T12:08:44.082Z,6.80
2024-05-09T12:10:46.258Z,8.93
2024-05-09T12:12:48.307Z,6.13
2024-05-09T12:14:50.039Z,9.45
2024-05-09T12:16:51.906Z,5.28
2024-05-09T12:18:53.895Z,6.25
2024-05-09T12:20:55.852Z,7.38
2024-05-09T12:22:57.564Z,5.93
2024-05-09T12:24:59.328Z,14.15
2024-05-09T12:27:01.123Z,40.80
2024-05-09T12:29:02.879Z,20.58
2024-05-09T12:31:04.969Z,7.75
2024-05-09T12:33:08.607Z,6.45
2024-05-09T12:35:10.790Z,5.75
2024-05-09T12:37:12.705Z,6.30
2024-05-09T12:39:14.614Z,6.55
2024-05-09T12:41:16.320Z,5.13
2024-05-09T12:43:18.385Z,5.57
2024-05-09T12:45:20.153Z,7.70
2024-05-09T12:47:22.100Z,10.43
2024-05-09T12:49:24.174Z,8.98
2024-05-09T12:51:26.214Z,5.60
2024-05-09T12:53:27.959Z,7.38
2024-05-09T12:55:34.028Z,6.97
2024-05-09T12:57:42.500Z,6.35
2024-05-09T12:59:44.345Z,12.43
2024-05-09T13:01:46.404Z,5.60
2024-05-09T13:03:48.356Z,9.25
2024-05-09T13:05:51.419Z,8.00
2024-05-09T13:07:53.552Z,6.10
2024-05-09T13:09:55.318Z,6.00
2024-05-09T13:11:57.103Z,9.00
2024-05-09T13:13:59.105Z,6.63
2024-05-09T13:16:00.972Z,4.40
2024-05-09T13:18:04.080Z,7.22
2024-05-09T13:20:09.290Z,6.47
2024-05-09T13:22:13.734Z,3.75
2024-05-09T13:24:15.573Z,4.63
2024-05-09T13:26:17.423Z,6.65
2024-05-09T13:28:19.351Z,8.35
2024-05-09T13:30:29.262Z,9.75
2024-05-09T13:32:39.740Z,4.22
2024-05-09T13:34:41.585Z,4.65
2024-05-09T13:36:43.461Z,10.88
2024-05-09T13:38:45.540Z,5.03
2024-05-09T13:40:47.818Z,5.28
2024-05-09T13:42:49.934Z,7.32
2024-05-09T13:44:51.666Z,5.57
2024-05-09T13:46:53.674Z,5.38
2024-05-09T13:48:55.583Z,3.50
2024-05-09T13:50:57.531Z,5.65
2024-05-09T13:52:59.252Z,4.35
2024-05-09T13:55:00.989Z,7.05
2024-05-09T13:57:02.892Z,8.50
2024-05-09T13:59:04.926Z,5.55
2024-05-09T14:01:06.729Z,7.35
2024-05-09T14:03:08.643Z,5.28
2024-05-09T14:05:10.817Z,5.47
2024-05-09T14:07:12.964Z,6.15
2024-05-09T14:09:15.128Z,7.70
2024-05-09T14:11:16.890Z,5.28
2024-05-09T14:13:19.770Z,6.45
2024-05-09T14:15:21.746Z,3.75
2024-05-09T14:17:23.660Z,5.53
2024-05-09T14:19:25.462Z,12.15
2024-05-09T14:21:27.206Z,4.07
2024-05-09T14:23:29.130Z,7.25
2024-05-09T14:25:31.266Z,6.15
2024-05-09T14:27:33.070Z,5.68
2024-05-09T14:29:35.093Z,4.80
2024-05-09T14:31:39.677Z,5.18
2024-05-09T14:33:41.760Z,5.40
2024-05-09T14:35:43.696Z,6.88
2024-05-09T14:37:45.471Z,4.70
2024-05-09T14:39:47.239Z,6.18
2024-05-09T14:41:48.992Z,4.20
2024-05-09T14:43:50.693Z,4.32
2024-05-09T14:45:52.594Z,6.00
2024-05-09T14:47:54.587Z,10.07
2024-05-09T14:49:56.441Z,7.00
2024-05-09T14:51:58.390Z,3.38
2024-05-09T14:54:00.228Z,4.95
2024-05-09T14:56:02.010Z,4.60
2024-05-09T14:58:03.970Z,4.93
2024-05-09T15:00:09.124Z,6.45
2024-05-09T15:02:16.050Z,5.03
2024-05-09T15:04:17.990Z,6.40
2024-05-09T15:06:19.951Z,4.78
2024-05-09T15:08:21.804Z,4.00
2024-05-09T15:10:31.169Z,4.00
2024-05-09T15:12:36.649Z,4.57
2024-05-09T15:14:38.380Z,4.20
2024-05-09T15:16:40.116Z,3.17
2024-05-09T15:18:43.908Z,8.40
2024-05-09T15:20:46.118Z,3.78
2024-05-09T15:22:47.970Z,4.10
2024-05-09T15:24:49.820Z,4.75
2024-05-09T15:26:51.579Z,5.63
2024-05-09T15:28:53.291Z,4.13
2024-05-09T15:30:55.017Z,8.75
2024-05-09T15:32:56.828Z,7.93
2024-05-09T15:34:58.625Z,5.93
2024-05-09T15:37:01.308Z,5.22
2024-05-09T15:39:03.275Z,5.50
2024-05-09T15:41:05.547Z,3.63
2024-05-09T15:43:08.511Z,6.10
2024-05-09T15:45:11.367Z,7.05
2024-05-09T15:47:13.078Z,5.35
2024-05-09T15:49:14.966Z,3.75
2024-05-09T15:51:16.812Z,6.10
2024-05-09T15:53:18.543Z,4.18
2024-05-09T15:55:20.440Z,6.82
2024-05-09T15:57:22.462Z,7.47
2024-05-09T15:59:24.315Z,4.90
2024-05-09T16:01:26.155Z,3.53
2024-05-09T16:03:28.119Z,5.13
2024-05-09T16:05:29.998Z,5.43
2024-05-09T16:07:31.938Z,4.43
2024-05-09T16:09:33.696Z,6.30
2024-05-09T16:11:35.511Z,6.25
2024-05-09T16:13:37.265Z,6.82
2024-05-09T16:15:39.076Z,5.43
2024-05-09T16:17:40.968Z,4.28
2024-05-09T16:19:42.756Z,8.63
2024-05-09T16:21:44.519Z,7.72
2024-05-09T16:23:46.253Z,6.65
2024-05-09T16:25:48.539Z,4.88
2024-05-09T16:27:51.477Z,4.90
2024-05-09T16:29:53.211Z,8.37
2024-05-09T16:31:54.996Z,7.88
2024-05-09T16:33:56.980Z,4.78
2024-05-09T16:35:58.897Z,4.80
2024-05-09T16:38:04.108Z,3.70
2024-05-09T16:40:09.929Z,5.93
2024-05-09T16:42:17.006Z,8.60
2024-05-09T16:44:18.840Z,7.90
2024-05-09T16:46:20.948Z,8.52
2024-05-09T16:48:23.135Z,12.38
2024-05-09T16:50:29.536Z,6.70
2024-05-09T16:52:34.695Z,6.93
2024-05-09T16:54:36.609Z,9.07
2024-05-09T16:56:38.413Z,5.90
2024-05-09T16:58:40.492Z,3.92
2024-05-09T17:00:43.903Z,3.15
2024-05-09T17:02:46.306Z,3.53
2024-05-09T17:04:48.194Z,4.70
2024-05-09T17:06:50.027Z,6.72
2024-05-09T17:08:52.308Z,5.53
2024-05-09T17:10:54.946Z,8.43
2024-05-09T17:12:56.853Z,9.95
2024-05-09T17:14:58.585Z,6.32
2024-05-09T17:17:00.581Z,4.10
2024-05-09T17:19:02.538Z,5.57
2024-05-09T17:21:04.433Z,4.82
2024-05-09T17:23:06.580Z,6.18
2024-05-09T17:25:08.590Z,11.40
2024-05-09T17:27:10.644Z,6.78
2024-05-09T17:29:12.639Z,4.32
2024-05-09T17:31:14.520Z,5.22
2024-05-09T17:33:16.444Z,4.72
2024-05-09T17:35:18.242Z,7.60
2024-05-09T17:37:20.435Z,4.00
2024-05-09T17:39:22.248Z,4.13
2024-05-09T17:41:23.967Z,4.63
2024-05-09T17:43:25.967Z,4.22
2024-05-09T17:45:27.743Z,5.60
2024-05-09T17:47:29.631Z,5.65
2024-05-09T17:49:31.557Z,4.18
2024-05-09T17:51:33.614Z,6.22
2024-05-09T17:53:35.358Z,8.07
2024-05-09T17:55:37.394Z,5.20
2024-05-09T17:57:39.249Z,4.78
2024-05-09T17:59:40.982Z,3.20
2024-05-09T18:01:42.964Z,4.43
2024-05-09T18:03:44.960Z,6.50
2024-05-09T18:05:46.961Z,5.97
2024-05-09T18:07:48.992Z,6.07
2024-05-09T18:09:50.767Z,8.48
2024-05-09T18:11:52.531Z,8.43
2024-05-09T18:13:54.330Z,5.90
2024-05-09T18:15:56.149Z,7.20
2024-05-09T18:17:58.418Z,3.65
2024-05-09T18:20:00.490Z,5.00
2024-05-09T18:22:02.352Z,7.35
2024-05-09T18:24:04.220Z,4.95
2024-05-09T18:26:06.203Z,7.25
2024-05-09T18:28:08.589Z,5.47
2024-05-09T18:30:17.322Z,8.02
2024-05-09T18:32:25.491Z,11.25
2024-05-09T18:34:27.336Z,9.80
2024-05-09T18:36:29.177Z,5.65
2024-05-09T18:38:31.017Z,7.40
2024-05-09T18:40:36.178Z,14.90
2024-05-09T18:42:40.146Z,17.98
2024-05-09T18:44:42.165Z,14.25
2024-05-09T18:46:43.899Z,19.77
2024-05-09T18:48:45.712Z,10.38
2024-05-09T18:50:49.078Z,15.32
2024-05-09T18:52:51.064Z,13.05
2024-05-09T18:54:52.820Z,26.60
2024-05-09T18:56:54.798Z,23.45
2024-05-09T18:58:56.505Z,22.25
2024-05-09T19:01:00.828Z,16.02
2024-05-09T19:03:03.875Z,15.45
2024-05-09T19:05:05.878Z,9.95
2024-05-09T19:07:07.701Z,16.02
2024-05-09T19:09:09.530Z,15.18
2024-05-09T19:11:11.403Z,10.68
2024-05-09T19:13:14.373Z,13.32
2024-05-09T19:15:16.936Z,12.18
2024-05-09T19:17:18.706Z,9.18
2024-05-09T19:19:20.565Z,11.93
2024-05-09T19:21:22.727Z,8.07
2024-05-09T19:23:24.456Z,8.85
2024-05-09T19:25:26.224Z,6.18
2024-05-09T19:27:28.228Z,9.07
2024-05-09T19:29:30.382Z,10.43
2024-05-09T19:31:32.132Z,8.10
2024-05-09T19:33:34.075Z,11.77
2024-05-09T19:35:35.877Z,10.52
2024-05-09T19:37:37.750Z,8.05
2024-05-09T19:39:39.510Z,8.30
2024-05-09T19:41:41.468Z,5.25
2024-05-09T19:43:43.663Z,7.20
2024-05-09T19:45:45.726Z,6.35
2024-05-09T19:47:47.667Z,8.95
2024-05-09T19:49:49.432Z,6.97
2024-05-09T19:51:51.311Z,7.57
2024-05-09T19:53:53.070Z,7.75
2024-05-09T19:55:55.045Z,6.72
2024-05-09T19:57:57.239Z,8.27
2024-05-09T19:59:59.555Z,4.73
2024-05-09T20:02:01.474Z,5.47
2024-05-09T20:04:03.710Z,7.88
2024-05-09T20:06:05.714Z,6.82
2024-05-09T20:08:07.873Z,4.82
2024-05-09T20:10:16.628Z,7.43
2024-05-09T20:14:26.797Z,6.32
2024-05-09T20:16:28.506Z,5.90
2024-05-09T20:18:30.363Z,7.18
2024-05-09T20:20:37.778Z,4.38
2024-05-09T20:22:43.240Z,5.45
2024-05-09T20:24:45.070Z,7.55
2024-05-09T20:26:46.795Z,7.90
2024-05-09T20:28:48.508Z,6.40
2024-05-09T20:30:50.483Z,7.22
2024-05-09T20:32:52.389Z,7.03
2024-05-09T20:34:54.127Z,12.35
2024-05-09T20:36:55.906Z,13.35
2024-05-09T20:38:57.636Z,8.82
2024-05-09T20:40:59.446Z,11.60
2024-05-09T20:43:01.256Z,7.75
2024-05-09T20:45:03.061Z,12.57
2024-05-09T20:47:04.781Z,16.52
2024-05-09T20:49:06.565Z,11.90
2024-05-09T20:51:09.929Z,10.40
2024-05-09T20:53:13.855Z,9.65
2024-05-09T20:55:16.711Z,7.60
2024-05-09T20:57:18.535Z,7.38
2024-05-09T20:59:20.388Z,10.10
2024-05-09T21:01:22.130Z,5.63
2024-05-09T21:03:25.262Z,9.85
2024-05-09T21:05:27.197Z,6.28
2024-05-09T21:07:29.059Z,14.63
2024-05-09T21:09:30.769Z,8.30
2024-05-09T21:11:32.564Z,8.65
2024-05-09T21:13:34.424Z,11.32
2024-05-09T21:15:36.527Z,9.90
2024-05-09T21:17:38.432Z,10.70
2024-05-09T21:19:40.201Z,7.88
2024-05-09T21:21:42.575Z,9.18
2024-05-09T21:23:44.364Z,10.50
2024-05-09T21:25:46.091Z,8.63
2024-05-09T21:27:47.821Z,9.85
2024-05-09T21:29:49.603Z,8.93
2024-05-09T21:31:51.310Z,7.55
2024-05-09T21:33:53.117Z,8.95
2024-05-09T21:35:55.071Z,10.02
2024-05-09T21:37:56.842Z,8.65
2024-05-09T21:39:58.688Z,8.48
2024-05-09T21:42:00.682Z,12.15
2024-05-09T21:44:02.409Z,10.65
2024-05-09T21:46:05.000Z,11.70
2024-05-09T21:48:07.566Z,13.10
2024-05-09T21:50:12.563Z,10.38
2024-05-09T21:52:20.092Z,13.18
2024-05-09T21:54:21.827Z,13.07
2024-05-09T21:56:23.662Z,15.48
2024-05-09T21:58:25.610Z,13.73
2024-05-09T22:00:35.817Z,10.98
2024-05-09T22:02:43.309Z,10.45
2024-05-09T22:04:45.113Z,8.55
2024-05-09T22:06:46.951Z,11.95
2024-05-09T22:08:48.687Z,12.25
2024-05-09T22:10:50.704Z,10.10
2024-05-09T22:12:52.566Z,11.85
2024-05-09T22:14:54.309Z,11.88
2024-05-09T22:16:56.036Z,15.90
2024-05-09T22:18:58.097Z,12.63
2024-05-09T22:20:59.894Z,12.50
2024-05-09T22:23:01.606Z,11.70
2024-05-09T22:25:03.638Z,8.40
2024-05-09T22:27:05.482Z,8.40
2024-05-09T22:29:07.200Z,8.73
2024-05-09T22:31:09.449Z,10.73
2024-05-09T22:33:12.330Z,9.32
2024-05-09T22:35:14.548Z,9.43
2024-05-09T22:37:16.772Z,12.90
2024-05-09T22:39:18.657Z,8.75
2024-05-09T22:41:20.375Z,10.75
2024-05-09T22:43:24.260Z,14.35
2024-05-09T22:45:27.010Z,10.95
2024-05-09T22:47:28.777Z,12.23
2024-05-09T22:49:30.688Z,12.50
2024-05-09T22:51:33.243Z,12.98
2024-05-09T22:53:35.201Z,17.33
2024-05-09T22:55:36.997Z,13.00
2024-05-09T22:57:38.804Z,16.27
2024-05-09T22:59:40.652Z,13.07
2024-05-09T23:01:42.446Z,8.60
2024-05-09T23:03:44.276Z,10.93
2024-05-09T23:05:46.092Z,11.52
2024-05-09T23:07:47.835Z,9.25
2024-05-09T23:09:49.605Z,10.75
2024-05-09T23:11:51.555Z,11.43
2024-05-09T23:13:53.393Z,11.48
2024-05-09T23:15:55.185Z,10.82
2024-05-09T23:17:57.331Z,11.35
2024-05-09T23:19:59.518Z,10.30
2024-05-09T23:22:01.531Z,11.75
2024-05-09T23:24:03.433Z,10.23
2024-05-09T23:26:05.283Z,11.85
2024-05-09T23:28:07.512Z,12.27
2024-05-09T23:30:12.448Z,10.00
2024-05-09T23:32:17.021Z,11.57
2024-05-09T23:34:18.918Z,13.55
2024-05-09T23:36:20.847Z,14.07
2024-05-09T23:38:23.958Z,13.75
2024-05-09T23:40:36.890Z,10.68
2024-05-09T23:42:41.665Z,9.80
2024-05-09T23:44:43.403Z,11.55
2024-05-09T23:46:45.285Z,11.35
2024-05-09T23:48:47.218Z,11.60
2024-05-09T23:50:48.957Z,11.50
2024-05-09T23:52:50.827Z,13.07
2024-05-09T23:54:52.578Z,14.50
2024-05-09T23:56:54.370Z,11.05
2024-05-09T23:58:56.230Z,9.93
